Time;durP1;ratioP1;P1;durP2;ratioP2;P2;SDS_P1;SDS_P2;PMS_P1;PMS_P2;Temp;Humidity;BMP_temperature;BMP_pressure;BME280_temperature;BME280_humidity;BME280_pressure;Samples;Min_cycle;Max_cycle;Signal;HPM_P1;HPM_P2
2023/08/17 00:00:15;;;;;;;3.60;0.90;;;15.60;99.90;;;;;;5048138;28;20103;-80
2023/08/17 00:02:41;;;;;;;2.72;0.75;;;15.60;99.90;;;;;;5027682;28;20079;-63
2023/08/17 00:05:07;;;;;;;4.32;1.00;;;15.60;99.90;;;;;;5049193;28;20381;-59
2023/08/17 00:07:33;;;;;;;2.17;0.80;;;15.60;99.90;;;;;;5030087;28;20088;-54
2023/08/17 00:09:59;;;;;;;3.00;0.70;;;15.60;99.90;;;;;;5041691;28;20080;-82
2023/08/17 00:12:25;;;;;;;1.30;0.70;;;15.60;99.90;;;;;;5040433;28;20055;-78
2023/08/17 00:14:51;;;;;;;3.10;0.88;;;15.60;99.90;;;;;;5048460;28;20442;-76
2023/08/17 00:17:17;;;;;;;2.10;0.70;;;15.60;99.90;;;;;;5029776;28;20053;-54
2023/08/17 00:19:42;;;;;;;4.65;0.90;;;15.60;99.90;;;;;;5041696;28;20099;-63
2023/08/17 00:22:08;;;;;;;3.83;1.00;;;15.60;99.90;;;;;;5048274;28;20531;-59
2023/08/17 00:24:34;;;;;;;4.82;0.90;;;15.60;99.90;;;;;;5029141;28;20053;-54
2023/08/17 00:27:00;;;;;;;2.78;0.90;;;15.60;99.90;;;;;;5049264;28;20416;-75
2023/08/17 00:29:25;;;;;;;2.60;0.75;;;15.60;99.90;;;;;;5047168;28;20044;-60
2023/08/17 00:31:52;;;;;;;3.38;0.93;;;15.60;99.90;;;;;;5030135;28;20159;-62
2023/08/17 00:34:18;;;;;;;1.98;0.82;;;15.60;99.90;;;;;;5047560;28;20060;-57
2023/08/17 00:36:44;;;;;;;4.20;0.95;;;15.60;99.90;;;;;;5016493;28;20048;-55
2023/08/17 00:39:10;;;;;;;4.72;0.90;;;15.60;99.90;;;;;;5047866;28;20075;-65
2023/08/17 00:41:36;;;;;;;3.05;1.10;;;15.60;99.90;;;;;;5047436;28;20044;-59
2023/08/17 00:44:02;;;;;;;5.88;1.35;;;15.60;99.90;;;;;;5030576;28;20045;-58
2023/08/17 00:46:29;;;;;;;3.22;0.60;;;15.60;99.90;;;;;;5028782;28;20088;-62
2023/08/17 00:48:55;;;;;;;3.28;1.25;;;15.60;99.90;;;;;;5030263;28;20041;-59
2023/08/17 00:51:23;;;;;;;4.70;0.80;;;15.60;99.90;;;;;;5046338;28;20045;-72
2023/08/17 00:53:51;;;;;;;1.38;0.68;;;15.60;99.90;;;;;;5048121;28;20425;-59
2023/08/17 00:56:16;;;;;;;4.57;0.90;;;15.60;99.90;;;;;;5047437;28;20132;-61
2023/08/17 00:58:43;;;;;;;3.95;1.17;;;15.60;99.90;;;;;;5029565;28;20132;-66
2023/08/17 01:01:09;;;;;;;4.10;0.90;;;15.60;99.90;;;;;;5046201;28;20114;-74
2023/08/17 01:03:34;;;;;;;3.03;0.93;;;15.50;99.90;;;;;;5028531;28;20049;-62
2023/08/17 01:06:02;;;;;;;3.58;0.93;;;15.50;99.90;;;;;;5048305;28;20056;-66
2023/08/17 01:08:29;;;;;;;4.50;1.58;;;15.50;99.90;;;;;;5029103;28;20072;-59
2023/08/17 01:11:13;;;;;;;1.90;0.80;;;15.50;99.90;;;;;;5017343;28;20049;-58
2023/08/17 01:13:49;;;;;;;2.88;0.70;;;15.60;99.90;;;;;;5028622;28;20457;-59
2023/08/17 01:16:21;;;;;;;5.28;0.73;;;15.50;99.90;;;;;;5029594;28;20072;-62
2023/08/17 01:18:49;;;;;;;4.55;1.02;;;15.50;99.90;;;;;;5047645;28;20084;-59
2023/08/17 01:21:18;;;;;;;4.43;0.90;;;15.50;99.90;;;;;;5028125;28;20128;-62
2023/08/17 01:23:49;;;;;;;2.20;0.80;;;15.50;99.90;;;;;;5029656;28;20491;-56
2023/08/17 01:26:15;;;;;;;3.55;0.95;;;15.50;99.90;;;;;;5184111;22;20062;-66
2023/08/17 01:28:43;;;;;;;3.35;0.80;;;15.50;99.90;;;;;;5048212;28;20045;-67
2023/08/17 01:31:45;;;;;;;0.95;0.80;;;15.50;99.90;;;;;;5067605;28;20123;-67
2023/08/17 01:34:18;;;;;;;3.58;1.10;;;15.50;99.90;;;;;;5026668;28;20057;-66
2023/08/17 01:36:50;;;;;;;1.38;0.85;;;15.50;99.90;;;;;;5051953;28;20051;-67
2023/08/17 01:39:17;;;;;;;3.20;0.98;;;15.50;99.90;;;;;;5049945;28;20059;-67
2023/08/17 01:41:44;;;;;;;3.75;1.10;;;15.50;99.90;;;;;;5065500;28;20067;-67
2023/08/17 01:44:10;;;;;;;3.55;1.13;;;15.40;99.90;;;;;;5067503;28;20052;-66
2023/08/17 01:46:37;;;;;;;3.28;0.80;;;15.50;99.90;;;;;;5066589;28;20068;-66
2023/08/17 01:49:02;;;;;;;0.82;0.80;;;15.50;99.90;;;;;;5067147;28;20106;-66
2023/08/17 01:51:28;;;;;;;4.35;1.10;;;15.50;99.90;;;;;;5049644;28;20433;-66
2023/08/17 01:53:54;;;;;;;3.25;0.85;;;15.50;99.90;;;;;;5065616;28;20480;-66
2023/08/17 01:56:20;;;;;;;2.33;0.88;;;15.50;99.90;;;;;;5067834;28;20067;-66
2023/08/17 01:58:46;;;;;;;7.82;1.23;;;15.50;99.90;;;;;;5065694;28;20055;-66
2023/08/17 02:01:11;;;;;;;3.50;0.93;;;15.50;99.90;;;;;;5049382;28;20493;-66
2023/08/17 02:03:37;;;;;;;7.68;0.90;;;15.60;99.90;;;;;;5065676;28;20037;-66
2023/08/17 02:06:03;;;;;;;4.88;0.90;;;15.60;99.90;;;;;;5067122;28;20074;-66
2023/08/17 02:08:30;;;;;;;3.33;1.15;;;15.60;99.90;;;;;;5066624;28;20045;-66
2023/08/17 02:10:56;;;;;;;4.25;1.23;;;15.60;99.90;;;;;;5033800;28;20491;-66
2023/08/17 02:13:21;;;;;;;1.13;0.90;;;15.60;99.90;;;;;;5066989;28;20051;-66
2023/08/17 02:15:47;;;;;;;7.72;1.30;;;15.50;99.90;;;;;;5065595;28;20063;-66
2023/08/17 02:18:13;;;;;;;2.08;0.85;;;15.50;99.90;;;;;;5049494;28;20373;-66
2023/08/17 02:20:39;;;;;;;5.10;0.95;;;15.50;99.90;;;;;;5065919;28;20379;-66
2023/08/17 02:23:05;;;;;;;3.28;0.88;;;15.50;99.90;;;;;;5052666;28;20414;-66
2023/08/17 02:25:35;;;;;;;3.25;1.20;;;15.50;99.90;;;;;;5065591;28;20190;-66
2023/08/17 02:28:02;;;;;;;5.38;1.13;;;15.50;99.90;;;;;;5065179;28;20056;-66
2023/08/17 02:30:28;;;;;;;6.57;1.15;;;15.50;99.90;;;;;;5067558;28;20090;-66
2023/08/17 02:32:53;;;;;;;8.05;1.15;;;15.50;99.90;;;;;;5033124;28;20049;-67
2023/08/17 02:35:19;;;;;;;2.28;1.02;;;15.50;99.90;;;;;;5047571;28;20040;-66
2023/08/17 02:37:45;;;;;;;3.70;0.98;;;15.50;99.90;;;;;;5047541;28;20053;-66
2023/08/17 02:40:11;;;;;;;5.25;1.02;;;15.50;99.90;;;;;;5048758;28;20059;-66
2023/08/17 02:42:36;;;;;;;4.32;1.05;;;15.50;99.90;;;;;;5065299;28;20090;-67
2023/08/17 02:45:03;;;;;;;8.95;1.30;;;15.50;99.90;;;;;;5030262;28;20040;-67
2023/08/17 02:47:28;;;;;;;2.72;0.90;;;15.50;99.90;;;;;;5057290;28;20056;-67
2023/08/17 02:49:54;;;;;;;2.10;0.90;;;15.50;99.90;;;;;;5047466;28;20105;-67
2023/08/17 02:52:20;;;;;;;4.53;0.90;;;15.50;99.90;;;;;;5067389;28;20042;-66
2023/08/17 02:54:45;;;;;;;2.65;1.17;;;15.50;99.90;;;;;;5065534;28;20052;-66
2023/08/17 02:57:12;;;;;;;2.40;1.05;;;15.50;99.90;;;;;;5031539;28;20051;-66
2023/08/17 02:59:38;;;;;;;3.33;1.10;;;15.50;99.90;;;;;;5065331;28;20037;-66
2023/08/17 03:02:04;;;;;;;4.63;1.00;;;15.60;99.90;;;;;;5066548;28;20124;-66
2023/08/17 03:04:29;;;;;;;2.05;0.95;;;15.60;99.90;;;;;;5047780;28;20056;-66
2023/08/17 03:06:55;;;;;;;4.22;0.98;;;15.70;99.90;;;;;;5063332;28;20045;-66
2023/08/17 03:09:20;;;;;;;4.85;1.05;;;15.70;99.90;;;;;;5051037;28;20040;-66
2023/08/17 03:11:46;;;;;;;5.18;0.75;;;15.70;99.90;;;;;;5055850;28;20055;-67
2023/08/17 03:14:12;;;;;;;6.80;1.05;;;15.70;99.90;;;;;;5048413;28;20045;-66
2023/08/17 03:16:38;;;;;;;4.22;0.77;;;15.70;99.90;;;;;;5068008;28;20508;-66
2023/08/17 03:19:04;;;;;;;4.85;1.88;;;15.70;99.90;;;;;;5052215;28;20083;-66
2023/08/17 03:21:30;;;;;;;5.30;1.15;;;15.60;99.90;;;;;;5069255;28;20474;-66
2023/08/17 03:23:56;;;;;;;3.88;1.10;;;15.60;99.90;;;;;;5069769;28;20135;-66
2023/08/17 03:26:21;;;;;;;1.85;1.33;;;15.60;99.90;;;;;;5067927;28;20057;-66
2023/08/17 03:28:47;;;;;;;5.22;1.00;;;15.60;99.90;;;;;;5051652;28;20409;-66
2023/08/17 03:31:13;;;;;;;7.35;1.35;;;15.60;99.90;;;;;;5069721;28;20052;-66
2023/08/17 03:33:40;;;;;;;9.13;1.13;;;15.60;99.90;;;;;;5050031;28;20040;-66
2023/08/17 03:36:06;;;;;;;4.82;1.00;;;15.60;99.90;;;;;;5051604;28;20098;-66
2023/08/17 03:38:32;;;;;;;7.80;1.20;;;15.60;99.90;;;;;;5068727;28;20044;-66
2023/08/17 03:40:58;;;;;;;3.83;1.00;;;15.60;99.90;;;;;;5069437;28;20049;-66
2023/08/17 03:43:23;;;;;;;3.00;0.88;;;15.50;99.90;;;;;;5068340;28;20048;-66
2023/08/17 03:45:49;;;;;;;4.85;0.95;;;15.60;99.90;;;;;;5051865;28;20044;-66
2023/08/17 03:48:15;;;;;;;6.78;1.00;;;15.50;99.90;;;;;;5069607;28;20509;-65
2023/08/17 03:50:40;;;;;;;3.13;1.10;;;15.50;99.90;;;;;;5050326;28;20124;-66
2023/08/17 03:53:06;;;;;;;3.53;0.68;;;15.50;99.90;;;;;;5069435;28;20051;-66
2023/08/17 03:55:32;;;;;;;4.70;1.08;;;15.50;99.90;;;;;;5060512;28;20443;-66
2023/08/17 03:57:57;;;;;;;6.47;1.30;;;15.50;99.90;;;;;;5027656;28;20049;-66
2023/08/17 04:00:23;;;;;;;3.15;1.10;;;15.40;99.90;;;;;;5067972;28;20044;-66
2023/08/17 04:02:49;;;;;;;4.05;1.55;;;15.40;99.90;;;;;;5051021;28;20065;-66
2023/08/17 04:05:14;;;;;;;3.28;1.23;;;15.40;99.90;;;;;;5050264;28;20056;-66
2023/08/17 04:07:40;;;;;;;4.38;0.90;;;15.40;99.90;;;;;;5054577;28;20048;-66
2023/08/17 04:10:07;;;;;;;3.72;1.00;;;15.40;99.90;;;;;;5045484;28;20546;-67
2023/08/17 04:12:33;;;;;;;1.80;1.08;;;15.30;99.90;;;;;;5061644;28;20139;-66
2023/08/17 04:14:58;;;;;;;4.63;1.10;;;15.30;99.90;;;;;;5033958;28;20175;-66
2023/08/17 04:17:24;;;;;;;5.32;1.50;;;15.30;99.90;;;;;;5033122;28;20044;-66
2023/08/17 04:19:50;;;;;;;6.30;0.95;;;15.30;99.90;;;;;;5069573;28;20048;-65
2023/08/17 04:22:16;;;;;;;2.15;0.68;;;15.30;99.90;;;;;;5067636;28;20632;-67
2023/08/17 04:24:42;;;;;;;8.55;1.08;;;15.20;99.90;;;;;;5068775;28;20083;-66
2023/08/17 04:27:08;;;;;;;6.97;1.05;;;15.30;99.90;;;;;;5033376;28;20056;-66
2023/08/17 04:29:33;;;;;;;2.42;0.90;;;15.30;99.90;;;;;;5067736;28;20049;-66
2023/08/17 04:31:59;;;;;;;3.72;0.85;;;15.30;99.90;;;;;;5069287;28;20132;-66
2023/08/17 04:34:25;;;;;;;5.32;1.05;;;15.30;99.90;;;;;;5066601;28;20437;-66
2023/08/17 04:36:50;;;;;;;4.57;1.33;;;15.20;99.90;;;;;;5068103;28;20093;-66
2023/08/17 04:39:17;;;;;;;7.47;1.65;;;15.30;99.90;;;;;;5049333;28;20387;-66
2023/08/17 04:41:43;;;;;;;5.80;1.33;;;15.30;99.90;;;;;;5050722;28;20470;-66
2023/08/17 04:44:08;;;;;;;3.83;0.98;;;15.30;99.90;;;;;;5049289;28;20056;-66
2023/08/17 04:46:35;;;;;;;4.90;1.05;;;15.30;99.90;;;;;;5049646;28;20047;-66
2023/08/17 04:49:01;;;;;;;3.72;1.25;;;15.30;99.90;;;;;;5050611;28;20049;-66
2023/08/17 04:51:26;;;;;;;3.22;1.00;;;15.40;99.90;;;;;;5066751;28;20094;-66
2023/08/17 04:53:52;;;;;;;5.03;0.85;;;15.50;99.90;;;;;;5074068;28;20039;-66
2023/08/17 04:56:18;;;;;;;5.40;1.65;;;15.50;99.90;;;;;;5060946;28;20052;-66
2023/08/17 04:58:44;;;;;;;6.60;0.90;;;15.40;99.90;;;;;;5049839;28;20044;-66
2023/08/17 05:01:10;;;;;;;3.92;0.93;;;15.50;99.90;;;;;;5066888;28;20040;-66
2023/08/17 05:03:36;;;;;;;3.70;0.93;;;15.50;99.90;;;;;;5049996;28;20086;-66
2023/08/17 05:06:01;;;;;;;4.13;1.05;;;15.50;99.90;;;;;;5076379;28;20097;-66
2023/08/17 05:08:27;;;;;;;5.85;1.58;;;15.50;99.90;;;;;;5070544;28;20070;-66
2023/08/17 05:10:53;;;;;;;3.08;1.17;;;15.50;99.90;;;;;;5033489;28;20140;-66
2023/08/17 05:13:19;;;;;;;3.65;0.93;;;15.40;99.90;;;;;;5048405;28;20056;-65
2023/08/17 05:15:45;;;;;;;5.55;1.10;;;15.40;99.90;;;;;;5036533;28;20086;-66
2023/08/17 05:18:10;;;;;;;2.33;0.75;;;15.40;99.90;;;;;;5035651;28;20398;-66
2023/08/17 05:20:36;;;;;;;4.55;1.00;;;15.40;99.90;;;;;;5068123;28;20113;-66
2023/08/17 05:23:02;;;;;;;2.35;0.70;;;15.40;99.90;;;;;;5034939;28;20386;-66
2023/08/17 05:25:29;;;;;;;4.63;0.98;;;15.40;99.90;;;;;;5048998;28;20112;-66
2023/08/17 05:27:55;;;;;;;1.60;0.90;;;15.40;99.90;;;;;;5067685;28;20037;-66
2023/08/17 05:30:21;;;;;;;2.40;0.73;;;15.50;99.90;;;;;;5064628;28;20469;-66
2023/08/17 05:32:46;;;;;;;5.47;0.95;;;15.40;99.90;;;;;;5049731;28;20056;-66
2023/08/17 05:35:12;;;;;;;7.88;1.42;;;15.50;99.90;;;;;;5047665;28;20051;-66
2023/08/17 05:37:38;;;;;;;4.03;1.00;;;15.50;99.90;;;;;;5066947;28;20048;-66
2023/08/17 05:40:04;;;;;;;15.63;0.90;;;15.50;99.90;;;;;;5047943;28;20048;-66
2023/08/17 05:42:30;;;;;;;7.93;0.98;;;15.50;99.90;;;;;;5067723;28;20127;-66
2023/08/17 05:44:56;;;;;;;4.03;0.82;;;15.50;99.90;;;;;;5049336;28;20438;-66
2023/08/17 05:47:22;;;;;;;5.75;0.73;;;15.50;99.90;;;;;;5048159;28;20048;-66
2023/08/17 05:49:47;;;;;;;1.65;0.80;;;15.50;99.90;;;;;;5068030;28;20059;-66
2023/08/17 05:52:13;;;;;;;4.70;1.27;;;15.50;99.90;;;;;;5065793;28;20405;-66
2023/08/17 05:54:39;;;;;;;10.35;1.00;;;15.60;99.90;;;;;;5067673;28;20532;-66
2023/08/17 05:57:05;;;;;;;4.35;1.02;;;15.60;99.90;;;;;;5066349;28;20048;-66
2023/08/17 05:59:30;;;;;;;6.05;1.17;;;15.60;99.90;;;;;;5048782;28;20040;-67
2023/08/17 06:01:56;;;;;;;5.32;1.15;;;15.60;99.90;;;;;;5066103;28;20112;-66
2023/08/17 06:04:22;;;;;;;1.20;0.85;;;15.60;99.90;;;;;;5066776;28;20045;-66
2023/08/17 06:06:48;;;;;;;6.00;1.08;;;15.60;99.90;;;;;;5049165;28;20406;-66
2023/08/17 06:09:15;;;;;;;1.38;0.60;;;15.60;99.90;;;;;;5044151;28;20048;-66
2023/08/17 06:11:40;;;;;;;3.47;0.70;;;15.60;99.90;;;;;;5039225;28;20067;-66
2023/08/17 06:14:06;;;;;;;5.97;1.15;;;15.60;99.90;;;;;;5066141;28;20390;-66
2023/08/17 06:16:32;;;;;;;5.07;0.63;;;15.60;99.90;;;;;;5049058;28;20053;-66
2023/08/17 06:18:58;;;;;;;1.63;0.50;;;15.60;99.90;;;;;;5065682;28;20048;-67
2023/08/17 06:21:24;;;;;;;2.35;0.60;;;15.60;99.90;;;;;;5066334;28;20043;-68
2023/08/17 06:23:50;;;;;;;6.93;1.38;;;15.70;99.90;;;;;;5067213;28;20049;-67
2023/08/17 06:26:16;;;;;;;2.72;0.68;;;15.70;99.90;;;;;;5065886;28;20063;-67
2023/08/17 06:28:42;;;;;;;3.63;0.55;;;15.70;99.90;;;;;;5067322;28;20050;-68
2023/08/17 06:31:08;;;;;;;4.18;0.70;;;15.70;99.90;;;;;;5046843;28;20052;-67
2023/08/17 06:33:33;;;;;;;1.67;0.60;;;15.80;99.90;;;;;;5048651;28;20044;-67
2023/08/17 06:35:59;;;;;;;2.15;0.50;;;15.90;99.90;;;;;;5066242;28;20094;-66
2023/08/17 06:38:25;;;;;;;3.63;0.70;;;16.00;99.90;;;;;;5066785;28;20047;-66
2023/08/17 06:40:52;;;;;;;8.45;0.93;;;16.10;99.90;;;;;;5066276;28;20470;-66
2023/08/17 06:43:18;;;;;;;3.40;1.17;;;16.30;99.90;;;;;;5035772;28;20047;-66
2023/08/17 06:45:46;;;;;;;4.30;0.80;;;16.30;99.90;;;;;;5055583;28;20040;-66
2023/08/17 06:48:12;;;;;;;6.85;1.10;;;16.30;99.90;;;;;;5069026;28;20568;-67
2023/08/17 06:50:38;;;;;;;5.43;0.80;;;16.40;99.90;;;;;;5067194;28;20043;-66
2023/08/17 06:53:05;;;;;;;3.55;0.55;;;16.50;99.90;;;;;;5069706;28;20053;-66
2023/08/17 06:55:30;;;;;;;3.70;0.80;;;16.50;99.90;;;;;;5077511;28;20110;-66
2023/08/17 06:57:57;;;;;;;3.17;0.77;;;16.60;99.90;;;;;;5075576;28;20036;-66
2023/08/17 07:00:23;;;;;;;2.95;1.05;;;16.60;99.90;;;;;;5071245;28;20091;-66
2023/08/17 07:02:50;;;;;;;5.03;0.80;;;16.60;99.90;;;;;;5070285;28;20053;-66
2023/08/17 07:05:16;;;;;;;2.20;0.55;;;16.60;99.90;;;;;;5069197;28;20045;-66
2023/08/17 07:07:42;;;;;;;3.55;0.60;;;16.60;99.90;;;;;;5052479;28;20357;-66
2023/08/17 07:10:10;;;;;;;4.70;1.00;;;16.50;99.90;;;;;;5040513;28;20410;-67
2023/08/17 07:12:37;;;;;;;4.20;0.57;;;16.50;99.90;;;;;;5048966;28;20045;-67
2023/08/17 07:15:04;;;;;;;2.05;0.60;;;16.50;99.90;;;;;;5069987;28;20056;-67
2023/08/17 07:17:30;;;;;;;2.70;0.70;;;16.50;99.90;;;;;;5039246;28;20053;-67
2023/08/17 07:19:56;;;;;;;1.92;0.57;;;16.50;99.90;;;;;;5040062;28;20052;-66
2023/08/17 07:22:21;;;;;;;1.50;0.80;;;16.50;99.90;;;;;;5060171;28;20045;-66
2023/08/17 07:24:47;;;;;;;1.27;0.63;;;16.40;99.90;;;;;;5061876;28;20494;-66
2023/08/17 07:27:13;;;;;;;2.50;0.60;;;16.50;99.90;;;;;;5050138;28;20049;-67
2023/08/17 07:29:39;;;;;;;1.73;0.52;;;16.50;99.90;;;;;;5034723;28;20459;-67
2023/08/17 07:32:05;;;;;;;3.38;0.50;;;16.50;99.90;;;;;;5033393;28;20064;-66
2023/08/17 07:34:31;;;;;;;2.63;0.68;;;16.50;99.90;;;;;;5057656;28;20043;-66
2023/08/17 07:36:57;;;;;;;2.63;0.70;;;16.60;99.90;;;;;;5016096;28;20175;-66
2023/08/17 07:39:23;;;;;;;2.28;0.45;;;16.60;99.90;;;;;;5051352;28;20049;-66
2023/08/17 07:41:49;;;;;;;1.33;0.60;;;16.60;99.90;;;;;;5056257;28;20047;-67
2023/08/17 07:44:14;;;;;;;3.10;0.90;;;16.60;99.90;;;;;;5049337;28;20025;-66
2023/08/17 07:46:40;;;;;;;2.30;0.55;;;16.60;99.90;;;;;;5052374;28;20483;-66
2023/08/17 07:49:06;;;;;;;2.65;0.60;;;16.60;99.90;;;;;;5049805;28;20045;-67
2023/08/17 07:51:33;;;;;;;1.65;0.60;;;16.60;99.90;;;;;;5030485;28;20043;-67
2023/08/17 07:54:00;;;;;;;2.72;0.77;;;16.60;99.90;;;;;;5050523;28;20128;-66
2023/08/17 07:56:26;;;;;;;0.98;0.38;;;16.60;99.90;;;;;;5067368;28;20406;-68
2023/08/17 07:58:53;;;;;;;1.13;0.55;;;16.60;99.90;;;;;;5074907;28;20044;-66
2023/08/17 08:01:19;;;;;;;3.20;0.50;;;16.60;99.90;;;;;;5044971;28;20043;-67
2023/08/17 08:03:45;;;;;;;8.80;0.80;;;16.60;99.90;;;;;;5072299;28;20048;-67
2023/08/17 08:06:11;;;;;;;2.10;0.70;;;16.60;99.90;;;;;;5063169;28;20497;-67
2023/08/17 08:08:36;;;;;;;3.90;0.50;;;16.60;99.90;;;;;;5075673;28;20044;-66
2023/08/17 08:11:04;;;;;;;2.08;0.60;;;16.70;99.90;;;;;;5059178;28;20082;-67
2023/08/17 08:13:30;;;;;;;4.13;0.75;;;16.70;99.90;;;;;;5050247;28;20577;-67
2023/08/17 08:15:58;;;;;;;4.45;0.80;;;16.70;99.90;;;;;;5042323;28;20048;-67
2023/08/17 08:18:23;;;;;;;6.22;0.77;;;16.70;99.90;;;;;;5064807;28;20040;-67
2023/08/17 08:20:49;;;;;;;3.30;0.60;;;16.70;99.90;;;;;;5043902;28;20126;-67
2023/08/17 08:23:15;;;;;;;6.55;0.70;;;16.70;99.90;;;;;;5044758;28;20044;-67
2023/08/17 08:25:41;;;;;;;2.85;0.52;;;16.70;99.90;;;;;;5044370;28;20055;-66
2023/08/17 08:28:07;;;;;;;4.05;0.30;;;16.70;99.90;;;;;;5045482;28;20071;-67
2023/08/17 08:30:32;;;;;;;1.60;0.65;;;16.70;99.90;;;;;;5057685;28;20048;-67
2023/08/17 08:32:59;;;;;;;4.20;0.77;;;16.80;99.90;;;;;;5069396;28;20150;-67
2023/08/17 08:35:25;;;;;;;3.20;0.73;;;16.70;99.90;;;;;;5074339;28;20103;-67
2023/08/17 08:37:51;;;;;;;1.95;0.50;;;16.70;99.90;;;;;;5052102;28;20083;-66
2023/08/17 08:40:17;;;;;;;2.35;0.55;;;16.80;99.90;;;;;;5040848;28;20084;-67
2023/08/17 08:42:44;;;;;;;2.78;0.68;;;16.80;99.90;;;;;;5066315;28;20401;-67
2023/08/17 08:45:10;;;;;;;3.85;0.70;;;16.80;99.90;;;;;;5056192;28;20485;-67
2023/08/17 08:47:44;;;;;;;2.58;0.70;;;16.80;99.90;;;;;;5055737;28;20037;-67
2023/08/17 08:50:17;;;;;;;2.33;0.60;;;16.90;99.90;;;;;;5051517;28;20486;-67
2023/08/17 08:52:59;;;;;;;4.32;0.80;;;17.00;99.90;;;;;;5071019;28;20055;-67
2023/08/17 08:55:30;;;;;;;2.70;0.63;;;17.00;99.90;;;;;;5046594;28;20048;-66
2023/08/17 08:57:56;;;;;;;2.55;0.85;;;17.10;99.90;;;;;;5029715;28;20045;-67
2023/08/17 09:00:24;;;;;;;2.15;0.73;;;17.10;99.90;;;;;;5056353;28;20040;-67
2023/08/17 09:02:51;;;;;;;0.63;0.50;;;17.20;99.90;;;;;;5047808;28;20504;-67
2023/08/17 09:05:17;;;;;;;1.13;0.55;;;17.30;99.90;;;;;;5052909;28;20098;-66
2023/08/17 09:07:44;;;;;;;2.38;0.60;;;17.40;99.90;;;;;;5073344;28;20044;-67
2023/08/17 09:10:10;;;;;;;1.88;0.57;;;17.50;99.90;;;;;;5047473;28;20087;-67
2023/08/17 09:12:36;;;;;;;1.75;0.63;;;17.50;99.90;;;;;;5064281;28;20048;-67
2023/08/17 09:15:02;;;;;;;0.82;0.57;;;17.60;99.90;;;;;;5071590;28;20059;-67
2023/08/17 09:17:31;;;;;;;2.40;0.60;;;17.60;99.90;;;;;;5081161;28;20498;-67
2023/08/17 09:19:57;;;;;;;1.75;0.88;;;17.60;99.90;;;;;;5078555;28;20088;-67
2023/08/17 09:22:24;;;;;;;0.95;0.70;;;17.60;99.90;;;;;;5043196;28;20045;-67
2023/08/17 09:24:51;;;;;;;1.80;1.20;;;17.70;99.90;;;;;;5044340;28;20091;-68
2023/08/17 09:27:17;;;;;;;3.22;0.57;;;17.70;99.90;;;;;;5053570;28;20728;-67
2023/08/17 09:29:45;;;;;;;1.25;0.57;;;17.80;99.90;;;;;;5049704;28;20052;-67
2023/08/17 09:32:14;;;;;;;4.00;0.68;;;17.90;99.90;;;;;;5014331;28;20079;-68
2023/08/17 09:34:43;;;;;;;3.92;0.50;;;17.90;99.90;;;;;;5037319;28;20048;-67
2023/08/17 09:37:13;;;;;;;2.60;0.68;;;17.90;99.90;;;;;;5032184;28;21081;-66
2023/08/17 09:39:38;;;;;;;1.70;0.60;;;17.90;99.90;;;;;;5057878;28;20041;-67
2023/08/17 09:42:05;;;;;;;3.55;0.68;;;17.90;99.90;;;;;;5057577;28;20131;-67
2023/08/17 09:44:33;;;;;;;1.38;0.50;;;17.90;99.90;;;;;;5033869;28;20054;-67
2023/08/17 09:46:59;;;;;;;4.07;0.65;;;18.00;99.90;;;;;;5034652;28;20053;-67
2023/08/17 09:49:25;;;;;;;1.85;0.50;;;18.00;99.90;;;;;;5046776;28;20084;-67
2023/08/17 09:51:53;;;;;;;2.15;0.60;;;18.10;99.90;;;;;;5047183;28;20068;-67
2023/08/17 09:54:26;;;;;;;1.40;0.50;;;18.20;99.90;;;;;;5045446;28;20149;-67
2023/08/17 09:56:53;;;;;;;4.15;0.60;;;18.20;99.90;;;;;;5044004;28;20041;-67
2023/08/17 09:59:19;;;;;;;1.08;0.70;;;18.30;99.90;;;;;;5028747;28;20076;-67
2023/08/17 10:01:49;;;;;;;2.10;0.93;;;18.40;99.90;;;;;;5048121;28;20053;-68
2023/08/17 10:04:25;;;;;;;2.03;0.70;;;18.50;99.90;;;;;;5028291;28;20057;-67
2023/08/17 10:07:04;;;;;;;1.48;0.70;;;18.60;99.90;;;;;;5039333;28;20041;-67
2023/08/17 10:09:38;;;;;;;3.30;0.65;;;18.70;99.90;;;;;;5029373;28;20462;-67
2023/08/17 10:12:11;;;;;;;2.97;0.70;;;18.60;99.90;;;;;;5050579;28;20529;-67
2023/08/17 10:14:46;;;;;;;3.83;0.65;;;18.70;99.90;;;;;;5048154;28;20043;-67
2023/08/17 10:17:19;;;;;;;3.75;0.63;;;18.70;99.90;;;;;;5013111;28;20056;-67
2023/08/17 10:19:52;;;;;;;3.20;0.95;;;18.80;99.90;;;;;;5029093;28;20502;-68
2023/08/17 10:22:22;;;;;;;1.77;0.80;;;18.80;99.90;;;;;;5047187;28;20052;-67
2023/08/17 10:24:50;;;;;;;2.00;0.88;;;18.90;99.90;;;;;;5038925;28;20116;-67
2023/08/17 10:27:17;;;;;;;2.95;0.75;;;19.00;99.90;;;;;;5044471;28;20094;-67
2023/08/17 10:29:44;;;;;;;4.93;0.80;;;19.10;99.90;;;;;;5054661;28;20037;-67
2023/08/17 10:32:12;;;;;;;2.92;0.95;;;19.20;99.90;;;;;;5084370;28;20410;-67
2023/08/17 10:34:38;;;;;;;1.38;0.70;;;19.40;99.90;;;;;;5050106;28;20041;-67
2023/08/17 10:37:05;;;;;;;3.30;0.90;;;19.70;99.90;;;;;;5058314;28;20090;-67
2023/08/17 10:39:31;;;;;;;4.65;0.70;;;19.90;99.90;;;;;;5058057;28;20052;-67
2023/08/17 10:41:58;;;;;;;2.15;0.90;;;20.00;99.90;;;;;;5082351;28;20460;-67
2023/08/17 10:44:40;;;;;;;3.08;0.82;;;19.90;99.90;;;;;;5071778;28;20090;-67
2023/08/17 10:47:31;;;;;;;3.05;0.73;;;20.00;99.90;;;;;;5064532;28;20047;-66
2023/08/17 10:50:03;;;;;;;3.38;0.85;;;20.10;99.90;;;;;;5060193;28;20066;-67
2023/08/17 10:52:34;;;;;;;3.95;0.90;;;20.30;99.90;;;;;;5079736;28;20134;-67
2023/08/17 10:55:02;;;;;;;4.85;1.13;;;20.40;99.90;;;;;;5039304;28;20053;-67
2023/08/17 10:57:39;;;;;;;2.65;0.90;;;20.40;99.90;;;;;;5065897;28;20047;-67
2023/08/17 11:00:30;;;;;;;1.70;0.60;;;20.30;99.90;;;;;;5047531;28;20521;-67
2023/08/17 11:03:00;;;;;;;4.88;1.10;;;20.20;99.90;;;;;;5057537;28;20053;-67
2023/08/17 11:05:44;;;;;;;4.68;0.95;;;20.20;99.90;;;;;;5066556;28;20041;-67
2023/08/17 11:08:40;;;;;;;1.80;0.70;;;20.10;99.90;;;;;;5061520;28;20076;-67
2023/08/17 11:11:12;;;;;;;3.13;0.93;;;20.10;99.90;;;;;;5054618;28;20048;-67
2023/08/17 11:13:39;;;;;;;5.75;1.00;;;20.10;99.90;;;;;;5074429;28;20123;-66
2023/08/17 11:16:10;;;;;;;2.33;0.90;;;20.10;99.90;;;;;;5076008;28;20075;-66
2023/08/17 11:18:36;;;;;;;3.05;0.70;;;20.20;99.90;;;;;;5073239;28;20045;-66
2023/08/17 11:21:06;;;;;;;2.50;0.85;;;20.40;99.90;;;;;;5067002;28;20058;-66
2023/08/17 11:23:36;;;;;;;2.25;0.85;;;20.60;99.90;;;;;;5065696;28;20515;-66
2023/08/17 11:26:02;;;;;;;1.73;1.10;;;20.90;99.90;;;;;;5068425;28;20052;-67
2023/08/17 11:28:36;;;;;;;1.63;0.60;;;21.00;99.90;;;;;;5053980;28;20502;-67
2023/08/17 11:31:04;;;;;;;2.05;0.80;;;21.10;99.90;;;;;;5046163;28;20541;-67
2023/08/17 11:33:32;;;;;;;6.35;0.90;;;21.10;99.90;;;;;;5053618;28;20102;-68
2023/08/17 11:35:59;;;;;;;4.50;1.08;;;21.10;99.90;;;;;;5034434;28;20081;-68
2023/08/17 11:38:32;;;;;;;2.17;0.70;;;21.10;99.90;;;;;;5027494;28;20049;-68
2023/08/17 11:40:59;;;;;;;2.80;1.05;;;21.00;99.90;;;;;;5018962;28;20053;-67
2023/08/17 11:43:26;;;;;;;5.22;0.95;;;21.10;99.90;;;;;;5053638;28;20366;-67
2023/08/17 11:45:52;;;;;;;3.97;0.90;;;21.20;99.90;;;;;;5037130;28;20052;-68
2023/08/17 11:48:21;;;;;;;1.50;0.80;;;21.20;99.90;;;;;;5050296;28;20564;-67
2023/08/17 11:50:47;;;;;;;3.58;2.30;;;21.40;99.90;;;;;;5052793;28;20073;-67
2023/08/17 11:53:13;;;;;;;6.43;3.35;;;21.50;99.90;;;;;;4999026;28;20052;-67
2023/08/17 11:55:39;;;;;;;5.03;2.83;;;21.50;99.90;;;;;;5027908;28;20721;-67
2023/08/17 11:58:05;;;;;;;2.00;1.48;;;21.40;99.30;;;;;;5019102;28;20388;-68
2023/08/17 12:00:36;;;;;;;1.83;1.08;;;21.50;99.90;;;;;;5024488;28;20040;-67
2023/08/17 12:03:04;;;;;;;2.72;1.05;;;21.40;99.90;;;;;;5030160;28;20463;-67
2023/08/17 12:05:31;;;;;;;1.05;0.75;;;21.60;99.90;;;;;;5033776;28;20048;-67
2023/08/17 12:08:03;;;;;;;4.70;0.98;;;21.50;99.90;;;;;;5038058;28;20415;-68
2023/08/17 12:10:31;;;;;;;2.10;0.90;;;21.60;99.90;;;;;;5011236;28;20050;-68
2023/08/17 12:13:00;;;;;;;3.45;0.88;;;21.50;99.90;;;;;;5047570;28;20048;-67
2023/08/17 12:15:33;;;;;;;3.00;0.93;;;21.50;99.90;;;;;;5048222;28;20056;-68
2023/08/17 12:18:02;;;;;;;1.60;0.88;;;21.40;99.90;;;;;;5046994;28;20045;-68
2023/08/17 12:20:27;;;;;;;1.05;0.70;;;21.30;99.90;;;;;;5048437;28;20037;-68
2023/08/17 12:22:53;;;;;;;1.70;0.90;;;21.20;99.90;;;;;;5030751;28;20051;-68
2023/08/17 12:25:23;;;;;;;1.20;0.57;;;21.20;99.90;;;;;;5028933;28;20510;-67
2023/08/17 12:27:49;;;;;;;0.70;0.50;;;21.10;99.90;;;;;;5068030;28;20441;-68
2023/08/17 12:30:26;;;;;;;2.25;0.80;;;21.00;99.90;;;;;;5048423;28;20112;-68
2023/08/17 12:32:52;;;;;;;2.40;0.80;;;21.00;99.90;;;;;;5050253;28;20123;-68
2023/08/17 12:35:19;;;;;;;2.00;0.82;;;21.10;99.90;;;;;;5044427;28;20125;-68
2023/08/17 12:37:44;;;;;;;1.27;0.60;;;21.10;99.90;;;;;;5059492;28;20059;-68
2023/08/17 12:40:10;;;;;;;3.25;0.70;;;21.20;99.90;;;;;;5066685;28;20044;-68
2023/08/17 12:42:36;;;;;;;3.67;1.13;;;21.10;99.90;;;;;;5048807;28;20048;-68
2023/08/17 12:45:02;;;;;;;4.80;1.55;;;21.00;99.90;;;;;;5049082;28;20142;-68
2023/08/17 12:47:28;;;;;;;4.05;0.98;;;21.00;99.90;;;;;;5051258;28;20045;-68